Time;durP1;ratioP1;P1;durP2;ratioP2;P2;SDS_P1;SDS_P2;PMS_P1;PMS_P2;Temp;Humidity;BMP_temperature;BMP_pressure;BME280_temperature;BME280_humidity;BME280_pressure;Samples;Min_cycle;Max_cycle;Signal;HPM_P1;HPM_P2
2021/12/21 00:02:21;;;;;;;;;;;3.50;79.40;;;;;;5056249;28;20340;-66
2021/12/21 00:04:46;;;;;;;;;;;3.40;80.80;;;;;;5056544;28;20384;-66
2021/12/21 00:07:12;;;;;;;;;;;3.20;81.60;;;;;;5056206;28;20428;-66
2021/12/21 00:09:37;;;;;;;;;;;3.20;81.20;;;;;;5056109;28;19961;-66
2021/12/21 00:12:03;;;;;;;;;;;3.20;81.50;;;;;;5068353;28;20054;-66
2021/12/21 00:14:46;;;;;;;;;;;3.30;80.00;;;;;;5076086;28;20437;-66
2021/12/21 00:25:15;;;;;;;;;;;3.70;77.50;;;;;;5075838;28;19951;-66
2021/12/21 00:27:40;;;;;;;;;;;3.90;75.50;;;;;;5056647;28;19950;-66
2021/12/21 00:30:06;;;;;;;;;;;3.90;74.90;;;;;;5054390;28;19980;-66
2021/12/21 00:32:32;;;;;;;;;;;4.00;74.20;;;;;;5055746;28;19943;-66
2021/12/21 00:34:57;;;;;;;;;;;4.10;73.20;;;;;;5055668;28;19945;-66
2021/12/21 00:37:26;;;;;;;;;;;4.10;73.50;;;;;;5055643;28;19937;-66
2021/12/21 00:39:52;;;;;;;;;;;4.10;73.40;;;;;;5054352;28;19938;-66
2021/12/21 00:42:18;;;;;;;;;;;4.20;73.70;;;;;;5059659;28;19970;-66
2021/12/21 00:44:43;;;;;;;;;;;4.30;73.50;;;;;;5055522;28;19951;-66
2021/12/21 00:47:09;;;;;;;;;;;4.40;73.20;;;;;;5054982;28;19953;-66
2021/12/21 00:49:36;;;;;;;;;;;4.60;72.20;;;;;;5054127;28;20412;-66
2021/12/21 00:52:02;;;;;;;;;;;4.70;71.60;;;;;;5055677;28;19972;-66
2021/12/21 00:54:28;;;;;;;;;;;4.70;71.90;;;;;;5055349;28;20387;-66
2021/12/21 00:56:53;;;;;;;;;;;4.40;75.40;;;;;;5066921;28;19958;-66
2021/12/21 00:59:19;;;;;;;;;;;4.10;75.50;;;;;;5075297;28;19937;-66
2021/12/21 01:01:44;;;;;;;;;;;3.90;75.20;;;;;;5075175;28;19970;-66
2021/12/21 01:04:20;;;;;;;;;;;3.90;75.70;;;;;;5075230;28;19947;-66
2021/12/21 01:07:01;;;;;;;;;;;4.10;73.90;;;;;;5075382;28;19949;-66
2021/12/21 01:10:11;;;;;;;;;;;4.30;72.50;;;;;;5075021;28;19989;-66
2021/12/21 01:12:18;;;;;;;;;;;4.40;72.10;;;;;;5057083;28;19956;-66
2021/12/21 01:17:23;;;;;;;;;;;4.70;70.90;;;;;;5054929;28;19942;-66
2021/12/21 01:20:00;;;;;;;;;;;4.80;70.80;;;;;;5054881;28;20359;-66
2021/12/21 01:22:52;;;;;;;;;;;4.90;71.00;;;;;;5054796;28;20062;-66
2021/12/21 01:25:40;;;;;;;;;;;5.00;70.10;;;;;;5069244;28;20409;-66
2021/12/21 01:28:15;;;;;;;;;;;5.10;69.10;;;;;;5074619;28;19935;-66
2021/12/21 01:35:55;;;;;;;;;;;5.40;67.70;;;;;;5074575;28;20033;-66
2021/12/21 01:51:21;;;;;;;;;;;5.30;68.90;;;;;;5074563;28;19997;-66
2021/12/21 01:53:47;;;;;;;;;;;5.20;68.90;;;;;;5074420;28;19943;-66
2021/12/21 01:56:13;;;;;;;;;;;5.30;68.70;;;;;;5074165;28;20030;-66
2021/12/21 01:58:39;;;;;;;;;;;5.20;68.10;;;;;;5073223;28;19969;-66
2021/12/21 02:01:15;;;;;;;;;;;5.20;68.70;;;;;;5073952;28;20443;-66
2021/12/21 02:03:47;;;;;;;;;;;5.10;70.20;;;;;;5058067;28;20049;-66
2021/12/21 02:06:13;;;;;;;;;;;5.00;71.00;;;;;;5053996;28;19943;-66
2021/12/21 02:08:38;;;;;;;;;;;5.10;71.80;;;;;;5053854;28;20452;-66
2021/12/21 02:11:04;;;;;;;;;;;5.10;71.10;;;;;;5053713;28;19986;-66
2021/12/21 02:13:33;;;;;;;;;;;5.10;70.80;;;;;;5053861;28;19940;-66
2021/12/21 02:15:59;;;;;;;;;;;5.00;71.10;;;;;;5053721;28;20453;-66
2021/12/21 02:18:44;;;;;;;;;;;4.80;73.90;;;;;;5060501;28;20398;-66
2021/12/21 02:23:45;;;;;;;;;;;4.90;72.20;;;;;;5053964;28;19975;-66
2021/12/21 02:31:26;;;;;;;;;;;4.90;70.50;;;;;;5053503;28;20014;-66
2021/12/21 02:33:52;;;;;;;;;;;4.90;70.90;;;;;;5069555;28;20426;-66
2021/12/21 02:36:17;;;;;;;;;;;4.90;71.30;;;;;;5073430;28;19937;-66
2021/12/21 02:38:43;;;;;;;;;;;4.90;71.30;;;;;;5073417;28;19943;-66
2021/12/21 02:41:09;;;;;;;;;;;5.00;71.00;;;;;;5073301;28;20031;-66
2021/12/21 02:43:37;;;;;;;;;;;5.10;70.60;;;;;;5073602;28;19950;-66
2021/12/21 02:46:02;;;;;;;;;;;5.10;70.10;;;;;;5073264;28;19938;-66
2021/12/21 02:48:28;;;;;;;;;;;5.10;72.30;;;;;;5073266;28;19947;-66
2021/12/21 02:50:54;;;;;;;;;;;4.90;71.50;;;;;;5053936;28;19996;-66
2021/12/21 02:53:19;;;;;;;;;;;4.90;71.50;;;;;;5053214;28;19951;-66
2021/12/21 02:55:45;;;;;;;;;;;4.90;71.30;;;;;;5053173;28;20009;-66
2021/12/21 02:58:10;;;;;;;;;;;4.90;70.10;;;;;;5063022;28;20311;-66
2021/12/21 03:00:36;;;;;;;;;;;5.10;68.00;;;;;;5071871;28;19949;-66
2021/12/21 03:03:07;;;;;;;;;;;5.30;67.70;;;;;;5071396;28;19958;-66
2021/12/21 03:05:33;;;;;;;;;;;5.40;66.80;;;;;;5073088;28;19945;-66
2021/12/21 03:08:12;;;;;;;;;;;5.40;67.00;;;;;;5055558;28;20047;-66
2021/12/21 03:10:45;;;;;;;;;;;5.30;69.30;;;;;;5051273;28;20049;-66
2021/12/21 03:14:03;;;;;;;;;;;5.20;70.60;;;;;;5052933;28;19964;-66
2021/12/21 03:15:59;;;;;;;;;;;5.20;70.30;;;;;;5052371;28;19947;-66
2021/12/21 03:18:25;;;;;;;;;;;5.30;70.80;;;;;;5052961;28;20043;-66
2021/12/21 03:20:50;;;;;;;;;;;5.40;69.70;;;;;;5052872;28;20303;-66
2021/12/21 03:23:16;;;;;;;;;;;5.40;69.50;;;;;;5055680;28;20004;-66
2021/12/21 03:25:42;;;;;;;;;;;5.40;69.80;;;;;;5072854;28;20398;-66
2021/12/21 03:28:07;;;;;;;;;;;5.20;69.40;;;;;;5072812;28;19941;-66
2021/12/21 03:30:33;;;;;;;;;;;5.10;69.40;;;;;;5072818;28;19970;-66
2021/12/21 03:32:58;;;;;;;;;;;5.20;70.30;;;;;;5072766;28;19971;-66
2021/12/21 03:35:24;;;;;;;;;;;5.30;71.00;;;;;;5072825;28;19946;-66
2021/12/21 03:37:49;;;;;;;;;;;5.30;71.10;;;;;;5072795;28;20330;-66
2021/12/21 03:40:15;;;;;;;;;;;5.30;70.80;;;;;;5068716;28;20008;-66
2021/12/21 03:42:40;;;;;;;;;;;5.30;71.20;;;;;;5052916;28;20013;-66
2021/12/21 03:45:07;;;;;;;;;;;5.40;71.70;;;;;;5052671;28;20046;-66
2021/12/21 03:47:33;;;;;;;;;;;5.50;71.70;;;;;;5052980;28;19998;-66
2021/12/21 03:50:03;;;;;;;;;;;5.60;70.80;;;;;;5065865;28;20380;-66
2021/12/21 03:52:29;;;;;;;;;;;5.70;70.60;;;;;;5072658;28;19959;-66
2021/12/21 03:55:03;;;;;;;;;;;5.80;68.70;;;;;;5072619;28;20323;-66
2021/12/21 03:57:29;;;;;;;;;;;5.70;67.10;;;;;;5066223;28;19988;-66
2021/12/21 03:59:55;;;;;;;;;;;5.70;66.50;;;;;;5052783;28;19993;-66
2021/12/21 04:02:23;;;;;;;;;;;5.70;66.10;;;;;;5052429;28;19969;-66
2021/12/21 04:04:48;;;;;;;;;;;5.70;66.10;;;;;;5052471;28;19966;-66
2021/12/21 04:07:14;;;;;;;;;;;5.70;66.40;;;;;;5052398;28;19994;-66
2021/12/21 04:09:40;;;;;;;;;;;5.60;66.20;;;;;;5052353;28;20414;-66
2021/12/21 04:12:05;;;;;;;;;;;5.50;66.90;;;;;;5052251;28;19971;-66
2021/12/21 04:14:33;;;;;;;;;;;5.40;67.70;;;;;;5052342;28;19953;-66
2021/12/21 04:16:58;;;;;;;;;;;5.40;68.10;;;;;;5061967;28;19996;-66
2021/12/21 04:19:25;;;;;;;;;;;5.40;68.50;;;;;;5072395;28;19983;-66
2021/12/21 04:21:50;;;;;;;;;;;5.40;69.10;;;;;;5072265;28;20049;-66
2021/12/21 04:24:16;;;;;;;;;;;5.40;69.70;;;;;;5075973;28;20424;-66
2021/12/21 04:26:42;;;;;;;;;;;5.40;70.50;;;;;;5075118;28;19969;-66
2021/12/21 04:29:08;;;;;;;;;;;5.40;70.80;;;;;;5074784;28;20042;-66
2021/12/21 04:31:33;;;;;;;;;;;5.40;70.50;;;;;;5075831;28;19994;-66
2021/12/21 04:33:59;;;;;;;;;;;5.30;71.80;;;;;;5075764;28;20414;-66
2021/12/21 04:36:25;;;;;;;;;;;5.20;71.70;;;;;;5075732;28;19955;-66
2021/12/21 04:38:52;;;;;;;;;;;5.30;71.90;;;;;;5075386;28;19951;-66
2021/12/21 04:43:47;;;;;;;;;;;5.10;71.40;;;;;;5063372;28;19952;-66
2021/12/21 04:46:12;;;;;;;;;;;5.10;71.70;;;;;;5055561;28;19944;-66
2021/12/21 04:48:38;;;;;;;;;;;5.20;71.10;;;;;;5055548;28;19980;-66
2021/12/21 04:51:03;;;;;;;;;;;5.30;70.30;;;;;;5055498;28;19946;-66
2021/12/21 04:53:29;;;;;;;;;;;5.50;68.80;;;;;;5055448;28;19948;-66
2021/12/21 04:55:54;;;;;;;;;;;5.90;67.50;;;;;;5055384;28;19992;-66
2021/12/21 04:58:20;;;;;;;;;;;6.00;67.50;;;;;;5054027;28;20001;-66
2021/12/21 05:00:46;;;;;;;;;;;6.10;66.90;;;;;;5054051;28;19960;-66
2021/12/21 05:03:12;;;;;;;;;;;6.10;65.50;;;;;;5056188;28;19965;-66
2021/12/21 05:05:37;;;;;;;;;;;6.10;65.30;;;;;;5055475;28;19953;-66
2021/12/21 05:10:42;;;;;;;;;;;6.10;64.90;;;;;;5062798;22;20042;-66
2021/12/21 05:13:10;;;;;;;;;;;6.10;64.70;;;;;;5039419;28;21694;-66
2021/12/21 05:15:35;;;;;;;;;;;6.10;65.20;;;;;;5035077;28;19941;-66
2021/12/21 05:18:01;;;;;;;;;;;6.10;65.30;;;;;;5035042;28;19954;-66
2021/12/21 05:20:26;;;;;;;;;;;6.10;65.30;;;;;;5035001;28;20033;-66
2021/12/21 05:22:52;;;;;;;;;;;6.10;65.20;;;;;;5038311;28;20027;-66
2021/12/21 05:25:18;;;;;;;;;;;6.00;65.90;;;;;;5054778;28;19953;-66
2021/12/21 05:27:44;;;;;;;;;;;5.90;66.70;;;;;;5054722;28;19952;-66
2021/12/21 05:30:10;;;;;;;;;;;5.80;68.80;;;;;;5054733;28;19939;-66
2021/12/21 05:32:36;;;;;;;;;;;5.60;70.50;;;;;;5054646;28;19943;-66
2021/12/21 05:35:01;;;;;;;;;;;5.60;70.10;;;;;;5070033;28;20018;-66
2021/12/21 05:37:27;;;;;;;;;;;5.70;69.60;;;;;;5054610;28;20464;-66
2021/12/21 05:40:11;;;;;;;;;;;5.80;67.80;;;;;;5054518;28;19940;-66
2021/12/21 05:42:36;;;;;;;;;;;5.80;67.50;;;;;;5044841;28;19964;-66
2021/12/21 05:45:03;;;;;;;;;;;5.70;68.10;;;;;;5034505;28;20410;-66
2021/12/21 05:47:29;;;;;;;;;;;5.70;68.60;;;;;;5034282;28;19995;-66
2021/12/21 05:49:54;;;;;;;;;;;5.50;68.60;;;;;;5033979;28;19949;-66
2021/12/21 05:52:20;;;;;;;;;;;5.40;69.20;;;;;;5043509;28;19986;-66
2021/12/21 05:54:45;;;;;;;;;;;5.50;70.00;;;;;;5036106;28;20389;-66
2021/12/21 05:57:11;;;;;;;;;;;5.60;70.20;;;;;;5036727;28;19944;-66
2021/12/21 05:59:36;;;;;;;;;;;5.50;69.30;;;;;;5040397;28;20037;-66
2021/12/21 06:02:02;;;;;;;;;;;5.50;69.80;;;;;;5047137;28;19961;-66
2021/12/21 06:04:28;;;;;;;;;;;5.40;71.80;;;;;;5035180;28;20303;-66
2021/12/21 06:06:53;;;;;;;;;;;5.40;70.50;;;;;;5048740;28;20432;-66
2021/12/21 06:09:19;;;;;;;;;;;5.40;70.70;;;;;;5040528;28;19966;-66
2021/12/21 06:12:01;;;;;;;;;;;5.60;70.60;;;;;;5034628;28;20016;-66
2021/12/21 06:14:58;;;;;;;;;;;5.80;68.80;;;;;;5044350;28;19947;-66
2021/12/21 06:23:08;;;;;;;;;;;6.00;66.50;;;;;;5042359;28;19973;-66
2021/12/21 06:25:39;;;;;;;;;;;6.00;67.10;;;;;;5053467;28;20002;-66
2021/12/21 06:28:06;;;;;;;;;;;5.90;66.30;;;;;;5041266;28;20020;-66
2021/12/21 06:30:32;;;;;;;;;;;6.00;66.30;;;;;;5043981;28;19955;-66
2021/12/21 06:32:58;;;;;;;;;;;6.00;66.30;;;;;;5051078;28;19943;-66
2021/12/21 06:35:24;;;;;;;;;;;5.90;67.90;;;;;;5044379;28;19954;-66
2021/12/21 06:37:49;;;;;;;;;;;5.90;70.00;;;;;;5039943;28;19950;-66
2021/12/21 06:40:15;;;;;;;;;;;5.80;70.50;;;;;;5046656;28;19960;-66
2021/12/21 06:42:43;;;;;;;;;;;5.70;70.00;;;;;;5046698;28;19965;-66
2021/12/21 06:45:25;;;;;;;;;;;5.70;69.70;;;;;;5041737;28;19950;-66
2021/12/21 06:53:18;;;;;;;;;;;5.90;69.00;;;;;;5048501;28;20318;-66
2021/12/21 06:55:44;;;;;;;;;;;5.90;69.40;;;;;;5047132;28;19942;-66
2021/12/21 06:58:10;;;;;;;;;;;5.80;69.80;;;;;;5044508;28;19953;-66
2021/12/21 07:00:35;;;;;;;;;;;5.90;69.80;;;;;;5040447;28;19964;-65
2021/12/21 07:03:01;;;;;;;;;;;6.00;68.20;;;;;;5044015;28;19972;-66
2021/12/21 07:05:27;;;;;;;;;;;6.00;67.40;;;;;;5041567;28;20010;-66
2021/12/21 07:07:52;;;;;;;;;;;6.10;67.10;;;;;;5040990;28;20045;-66
2021/12/21 07:10:23;;;;;;;;;;;6.10;66.40;;;;;;5042766;28;19968;-66
2021/12/21 07:20:05;;;;;;;;;;;6.10;66.10;;;;;;5104346;27;19951;-68
2021/12/21 07:22:30;;;;;;;;;;;6.00;66.20;;;;;;5093981;28;19951;-66
2021/12/21 07:24:56;;;;;;;;;;;6.00;66.20;;;;;;5094888;28;19957;-66
2021/12/21 07:27:21;;;;;;;;;;;6.10;65.90;;;;;;5100649;28;19966;-66
2021/12/21 07:29:48;;;;;;;;;;;6.10;65.60;;;;;;5092319;28;19967;-66
2021/12/21 07:32:14;;;;;;;;;;;6.10;65.40;;;;;;5090034;28;20415;-66
2021/12/21 07:34:39;;;;;;;;;;;6.20;65.00;;;;;;5091959;28;20042;-66
2021/12/21 07:37:09;;;;;;;;;;;6.40;64.10;;;;;;5097224;28;19992;-66
2021/12/21 07:39:35;;;;;;;;;;;6.50;63.90;;;;;;5098700;28;20056;-66
2021/12/21 07:42:00;;;;;;;;;;;6.60;63.20;;;;;;5101273;28;20033;-66
2021/12/21 07:44:26;;;;;;;;;;;6.70;63.30;;;;;;5096718;28;19955;-66
2021/12/21 07:46:51;;;;;;;;;;;6.70;63.10;;;;;;5103420;28;19967;-66
2021/12/21 07:49:17;;;;;;;;;;;6.70;62.60;;;;;;5093224;28;19944;-66
2021/12/21 07:51:43;;;;;;;;;;;6.70;62.80;;;;;;5093305;28;19940;-66
2021/12/21 07:54:08;;;;;;;;;;;6.60;62.80;;;;;;5092892;28;20034;-66
2021/12/21 07:56:34;;;;;;;;;;;6.60;63.10;;;;;;5100155;28;19949;-66
2021/12/21 07:58:59;;;;;;;;;;;6.40;63.50;;;;;;5101732;28;19970;-66
2021/12/21 08:01:26;;;;;;;;;;;6.40;64.20;;;;;;5094111;28;19944;-66
2021/12/21 08:03:53;;;;;;;;;;;6.50;64.30;;;;;;5092441;28;19983;-66
2021/12/21 08:06:19;;;;;;;;;;;6.40;64.50;;;;;;5091265;28;20005;-66
2021/12/21 08:08:45;;;;;;;;;;;6.50;64.40;;;;;;5102685;28;19960;-66
2021/12/21 08:13:38;;;;;;;;;;;6.50;64.00;;;;;;5095538;28;20047;-66
2021/12/21 08:16:04;;;;;;;;;;;6.50;64.30;;;;;;5093407;28;20006;-66
2021/12/21 08:18:30;;;;;;;;;;;6.60;64.50;;;;;;5094441;28;20042;-66
2021/12/21 08:20:56;;;;;;;;;;;6.60;64.40;;;;;;5100136;28;20039;-66
2021/12/21 08:23:21;;;;;;;;;;;6.60;64.60;;;;;;5095868;28;19946;-66
2021/12/21 08:25:47;;;;;;;;;;;6.50;64.80;;;;;;5092955;28;19950;-66
2021/12/21 08:28:12;;;;;;;;;;;6.40;65.40;;;;;;5103904;28;19963;-66
2021/12/21 08:30:38;;;;;;;;;;;6.40;65.80;;;;;;5093858;28;19941;-66
2021/12/21 08:33:04;;;;;;;;;;;6.50;65.40;;;;;;5081125;28;19942;-66
2021/12/21 08:35:31;;;;;;;;;;;6.50;65.50;;;;;;5080642;28;19941;-66
2021/12/21 08:38:03;;;;;;;;;;;6.40;65.00;;;;;;5079811;28;20034;-66
2021/12/21 08:40:38;;;;;;;;;;;6.40;65.50;;;;;;5077179;28;19970;-66
2021/12/21 08:43:08;;;;;;;;;;;6.40;65.70;;;;;;5075224;28;20519;-66
2021/12/21 08:45:34;;;;;;;;;;;6.40;65.90;;;;;;5082793;28;20000;-66
2021/12/21 08:48:00;;;;;;;;;;;6.30;66.40;;;;;;5076023;28;19951;-66
2021/12/21 08:50:26;;;;;;;;;;;6.40;66.10;;;;;;5085390;28;20010;-66
2021/12/21 08:52:51;;;;;;;;;;;6.30;66.20;;;;;;5078939;28;20341;-66
2021/12/21 08:55:20;;;;;;;;;;;6.30;66.60;;;;;;5073295;28;20058;-66
2021/12/21 08:57:46;;;;;;;;;;;6.30;66.20;;;;;;5074847;28;19994;-66
2021/12/21 09:00:12;;;;;;;;;;;6.30;66.40;;;;;;5070607;28;19992;-66
2021/12/21 09:02:38;;;;;;;;;;;6.30;66.10;;;;;;5073216;28;20358;-66
2021/12/21 09:05:12;;;;;;;;;;;6.40;66.40;;;;;;5070673;28;20391;-66
2021/12/21 09:07:38;;;;;;;;;;;6.40;66.10;;;;;;5076339;28;19989;-66
2021/12/21 09:10:05;;;;;;;;;;;6.40;65.60;;;;;;5078227;28;19947;-66
2021/12/21 09:12:30;;;;;;;;;;;6.40;66.30;;;;;;5085308;28;20367;-67
2021/12/21 09:14:56;;;;;;;;;;;6.40;66.70;;;;;;5085085;28;19954;-67
2021/12/21 09:17:21;;;;;;;;;;;6.30;66.30;;;;;;5078168;28;20001;-67
2021/12/21 09:19:47;;;;;;;;;;;6.30;67.00;;;;;;5083083;28;19989;-67
2021/12/21 09:22:13;;;;;;;;;;;6.30;67.20;;;;;;5075804;28;19950;-67
2021/12/21 09:24:38;;;;;;;;;;;6.30;67.20;;;;;;5087401;28;19986;-67
2021/12/21 09:27:04;;;;;;;;;;;6.30;66.30;;;;;;5074219;28;19964;-67
2021/12/21 09:29:29;;;;;;;;;;;6.30;65.70;;;;;;5079561;28;19952;-67
2021/12/21 09:31:55;;;;;;;;;;;6.40;66.10;;;;;;5080869;28;19962;-67
2021/12/21 09:34:20;;;;;;;;;;;6.40;66.40;;;;;;5079223;28;19950;-67
2021/12/21 09:36:46;;;;;;;;;;;6.40;66.10;;;;;;5078035;28;19955;-67
2021/12/21 09:39:11;;;;;;;;;;;6.50;66.10;;;;;;5080006;28;20399;-67
2021/12/21 09:41:37;;;;;;;;;;;6.50;66.20;;;;;;5081290;28;19948;-67
2021/12/21 09:44:04;;;;;;;;;;;6.50;66.20;;;;;;5074288;28;19940;-67
2021/12/21 09:46:30;;;;;;;;;;;6.50;66.60;;;;;;5077638;28;19986;-67
2021/12/21 09:48:56;;;;;;;;;;;6.40;66.60;;;;;;5083473;28;20007;-66
2021/12/21 09:51:21;;;;;;;;;;;6.50;66.20;;;;;;5091509;28;19954;-67
2021/12/21 09:53:47;;;;;;;;;;;6.50;66.10;;;;;;5076851;28;19938;-67
2021/12/21 09:56:13;;;;;;;;;;;6.50;66.20;;;;;;5075410;28;19959;-67
2021/12/21 09:58:39;;;;;;;;;;;6.50;66.00;;;;;;5082036;28;19988;-67
2021/12/21 10:01:04;;;;;;;;;;;6.50;66.20;;;;;;5078927;28;19955;-66
2021/12/21 10:03:30;;;;;;;;;;;6.50;66.20;;;;;;5079868;28;19946;-67
2021/12/21 10:06:04;;;;;;;;;;;6.50;67.30;;;;;;5076778;28;20357;-67
2021/12/21 10:08:31;;;;;;;;;;;6.50;67.00;;;;;;5079587;28;19995;-67
2021/12/21 10:10:57;;;;;;;;;;;6.40;66.30;;;;;;5071808;28;19948;-67
2021/12/21 10:13:23;;;;;;;;;;;6.40;66.90;;;;;;5077440;28;20370;-67
2021/12/21 10:15:54;;;;;;;;;;;6.40;67.00;;;;;;5075709;28;19950;-67
2021/12/21 10:18:23;;;;;;;;;;;6.40;67.50;;;;;;5073708;28;19977;-67
2021/12/21 10:20:48;;;;;;;;;;;6.40;67.50;;;;;;5076151;28;20054;-67
2021/12/21 10:23:18;;;;;;;;;;;6.40;67.30;;;;;;5087530;28;20031;-67
2021/12/21 10:25:46;;;;;;;;;;;6.50;67.70;;;;;;5072571;28;19950;-67
2021/12/21 10:28:12;;;;;;;;;;;6.60;67.10;;;;;;5074892;28;20406;-67
2021/12/21 10:30:56;;;;;;;;;;;6.70;66.90;;;;;;5072366;28;19956;-67
2021/12/21 10:33:23;;;;;;;;;;;6.70;66.90;;;;;;5070822;28;19941;-67
2021/12/21 10:35:49;;;;;;;;;;;6.80;66.80;;;;;;5081777;28;19947;-67
2021/12/21 10:38:28;;;;;;;;;;;7.00;66.70;;;;;;5073934;28;19971;-67
2021/12/21 10:40:54;;;;;;;;;;;7.00;66.00;;;;;;5072142;28;20001;-67
2021/12/21 10:43:20;;;;;;;;;;;7.10;65.20;;;;;;5072515;28;19976;-67
2021/12/21 10:45:47;;;;;;;;;;;7.30;65.10;;;;;;5072819;28;20454;-67
2021/12/21 10:48:19;;;;;;;;;;;7.30;63.60;;;;;;5073462;28;19952;-67
2021/12/21 10:50:46;;;;;;;;;;;7.40;64.10;;;;;;5075166;28;19953;-67
2021/12/21 10:53:17;;;;;;;;;;;7.40;64.30;;;;;;5073706;28;19947;-67
2021/12/21 10:55:43;;;;;;;;;;;7.40;64.00;;;;;;5073511;28;19947;-67
2021/12/21 10:58:12;;;;;;;;;;;7.60;64.00;;;;;;5073722;28;20461;-67
2021/12/21 11:00:40;;;;;;;;;;;7.60;63.60;;;;;;5077142;28;19944;-67
2021/12/21 11:03:05;;;;;;;;;;;7.70;63.30;;;;;;5072194;28;19958;-67
2021/12/21 11:05:31;;;;;;;;;;;7.80;63.30;;;;;;5079310;28;19942;-67
2021/12/21 11:08:04;;;;;;;;;;;7.90;62.90;;;;;;5070287;28;20362;-67
2021/12/21 11:10:34;;;;;;;;;;;7.90;62.60;;;;;;5072631;28;19939;-67
2021/12/21 11:13:01;;;;;;;;;;;8.10;62.20;;;;;;5072826;28;19983;-67
2021/12/21 11:15:28;;;;;;;;;;;8.10;61.80;;;;;;5072578;28;20444;-67
2021/12/21 11:17:54;;;;;;;;;;;8.10;61.70;;;;;;5072636;28;19952;-67
2021/12/21 11:20:20;;;;;;;;;;;8.20;61.40;;;;;;5072125;28;20036;-67
2021/12/21 11:22:45;;;;;;;;;;;8.20;61.40;;;;;;5071759;28;19983;-67
2021/12/21 11:25:12;;;;;;;;;;;8.20;61.90;;;;;;5071468;28;19986;-67
2021/12/21 11:27:38;;;;;;;;;;;8.20;61.90;;;;;;5071765;28;20044;-67
2021/12/21 11:30:06;;;;;;;;;;;8.20;62.10;;;;;;5072920;28;20506;-67
2021/12/21 11:32:34;;;;;;;;;;;8.30;61.70;;;;;;5071659;28;19958;-67
2021/12/21 11:37:47;;;;;;;;;;;8.20;62.10;;;;;;5060976;28;20018;-67
2021/12/21 11:40:14;;;;;;;;;;;8.30;62.40;;;;;;5072650;28;19959;-67
2021/12/21 11:42:56;;;;;;;;;;;8.20;63.00;;;;;;5071097;28;20044;-67
2021/12/21 11:45:33;;;;;;;;;;;8.10;63.40;;;;;;5070577;28;19952;-67
2021/12/21 11:48:11;;;;;;;;;;;8.10;64.10;;;;;;5071352;28;20046;-67
2021/12/21 11:50:37;;;;;;;;;;;8.00;63.80;;;;;;5070743;28;19952;-67
2021/12/21 11:53:04;;;;;;;;;;;8.10;64.40;;;;;;5068950;28;19978;-67
2021/12/21 11:55:31;;;;;;;;;;;8.20;64.70;;;;;;5071437;28;19945;-67
2021/12/21 11:58:01;;;;;;;;;;;8.30;64.30;;;;;;5073547;28;20047;-67
2021/12/21 12:00:34;;;;;;;;;;;8.30;63.70;;;;;;5072118;28;19942;-67
2021/12/21 12:03:10;;;;;;;;;;;8.40;63.60;;;;;;5071451;28;19948;-67
2021/12/21 12:05:37;;;;;;;;;;;8.30;63.50;;;;;;5078592;28;19958;-67
2021/12/21 12:08:04;;;;;;;;;;;8.40;63.30;;;;;;5075838;28;19972;-67
2021/12/21 12:10:30;;;;;;;;;;;8.40;63.50;;;;;;5076048;28;19944;-67
2021/12/21 12:13:06;;;;;;;;;;;8.40;63.30;;;;;;5076248;28;20249;-67
2021/12/21 12:15:39;;;;;;;;;;;8.40;63.10;;;;;;5075645;28;19994;-67
2021/12/21 12:18:05;;;;;;;;;;;8.50;62.50;;;;;;5075912;28;20009;-67
2021/12/21 12:20:30;;;;;;;;;;;8.60;61.90;;;;;;5075636;28;19998;-67
2021/12/21 12:23:06;;;;;;;;;;;8.60;61.40;;;;;;5075178;28;20395;-67
2021/12/21 12:25:34;;;;;;;;;;;8.50;61.50;;;;;;5074444;28;20219;-67
2021/12/21 12:28:01;;;;;;;;;;;8.40;61.30;;;;;;5074575;28;20416;-67
2021/12/21 12:30:28;;;;;;;;;;;8.40;61.70;;;;;;5073645;28;19947;-67
2021/12/21 12:32:55;;;;;;;;;;;8.50;61.60;;;;;;5079448;28;19943;-67
2021/12/21 12:35:23;;;;;;;;;;;8.50;61.20;;;;;;5074968;28;20005;-67
2021/12/21 12:37:50;;;;;;;;;;;8.40;60.80;;;;;;5075578;28;19995;-67
2021/12/21 12:40:18;;;;;;;;;;;8.40;61.30;;;;;;5073788;28;20332;-67
2021/12/21 12:44:17;;;;;;;;;;;8.40;61.60;;;;;;5109607;27;19944;-66
2021/12/21 12:46:50;;;;;;;;;;;8.50;61.90;;;;;;5089856;28;20725;-66
2021/12/21 12:49:20;;;;;;;;;;;8.50;62.10;;;;;;5087632;28;19954;-67
2021/12/21 12:51:46;;;;;;;;;;;8.40;61.60;;;;;;5087527;28;19939;-67
2021/12/21 12:54:15;;;;;;;;;;;8.40;61.30;;;;;;5087048;28;19955;-67
2021/12/21 12:56:41;;;;;;;;;;;8.40;61.00;;;;;;5086219;28;19940;-67
2021/12/21 12:59:06;;;;;;;;;;;8.50;60.70;;;;;;5084926;28;19944;-66
2021/12/21 13:01:38;;;;;;;;;;;8.40;60.40;;;;;;5088003;28;20049;-66
2021/12/21 13:04:08;;;;;;;;;;;8.30;60.70;;;;;;5087247;28;19944;-67
2021/12/21 13:06:35;;;;;;;;;;;8.10;60.90;;;;;;5083057;28;20388;-68
2021/12/21 13:09:03;;;;;;;;;;;8.00;61.40;;;;;;5088285;28;19970;-66
2021/12/21 13:11:30;;;;;;;;;;;7.90;62.10;;;;;;5082444;28;19941;-66
2021/12/21 13:13:57;;;;;;;;;;;7.80;62.30;;;;;;5085391;28;20008;-67
2021/12/21 13:16:24;;;;;;;;;;;7.70;63.90;;;;;;5077287;28;19945;-67
2021/12/21 13:18:51;;;;;;;;;;;7.60;64.30;;;;;;5076795;28;19965;-66
2021/12/21 13:21:20;;;;;;;;;;;7.60;64.20;;;;;;5081742;28;19956;-67
2021/12/21 13:23:49;;;;;;;;;;;7.60;64.00;;;;;;5079972;28;20324;-68
2021/12/21 13:26:16;;;;;;;;;;;7.50;64.10;;;;;;5082427;28;19963;-67
2021/12/21 13:28:52;;;;;;;;;;;7.50;63.80;;;;;;5085150;28;19946;-67
2021/12/21 13:31:19;;;;;;;;;;;7.50;63.00;;;;;;5082502;28;20041;-67
2021/12/21 13:33:49;;;;;;;;;;;7.40;64.40;;;;;;5075442;28;19958;-67
2021/12/21 13:36:15;;;;;;;;;;;7.50;63.70;;;;;;5083719;28;19988;-68
2021/12/21 13:38:40;;;;;;;;;;;7.40;63.60;;;;;;5081275;28;19992;-68
2021/12/21 13:41:07;;;;;;;;;;;7.40;64.80;;;;;;5083160;28;20093;-68
2021/12/21 13:43:34;;;;;;;;;;;7.40;64.70;;;;;;5076405;28;19986;-67
2021/12/21 13:46:01;;;;;;;;;;;7.40;65.50;;;;;;5080537;28;19948;-67
2021/12/21 13:48:28;;;;;;;;;;;7.60;65.40;;;;;;5075474;28;19959;-67
2021/12/21 13:50:54;;;;;;;;;;;7.60;63.70;;;;;;5073772;28;20390;-67
2021/12/21 13:53:19;;;;;;;;;;;7.70;64.30;;;;;;5086266;28;19956;-67
2021/12/21 13:55:49;;;;;;;;;;;7.80;64.70;;;;;;5065738;28;20024;-67
2021/12/21 13:58:14;;;;;;;;;;;7.90;63.10;;;;;;5062375;28;19969;-67
2021/12/21 14:00:42;;;;;;;;;;;7.90;62.90;;;;;;5059759;28;20328;-67
2021/12/21 14:03:32;;;;;;;;;;;7.90;62.70;;;;;;5069552;28;19991;-67
2021/12/21 14:06:08;;;;;;;;;;;7.90;62.80;;;;;;5059900;28;19945;-67
2021/12/21 14:08:34;;;;;;;;;;;7.90;63.00;;;;;;5066917;28;19966;-67
2021/12/21 14:11:00;;;;;;;;;;;7.90;63.20;;;;;;5070390;28;19946;-68
2021/12/21 14:13:30;;;;;;;;;;;7.80;63.80;;;;;;5072856;28;19951;-68
2021/12/21 14:15:56;;;;;;;;;;;7.70;63.90;;;;;;5065316;28;20183;-68
2021/12/21 14:18:23;;;;;;;;;;;7.70;64.40;;;;;;5063806;28;20421;-68
2021/12/21 14:20:58;;;;;;;;;;;7.60;64.80;;;;;;5066012;28;19956;-68
2021/12/21 14:23:26;;;;;;;;;;;7.60;65.40;;;;;;5064971;28;19960;-68
2021/12/21 14:25:52;;;;;;;;;;;7.60;65.80;;;;;;5068760;28;20002;-68
2021/12/21 14:28:19;;;;;;;;;;;7.70;65.30;;;;;;5066854;28;20420;-67
2021/12/21 14:30:44;;;;;;;;;;;7.90;65.20;;;;;;5075209;28;20357;-67
2021/12/21 14:33:23;;;;;;;;;;;7.90;64.80;;;;;;5076518;28;19989;-67
2021/12/21 14:50:52;;;;;;;;;;;8.00;64.20;;;;;;5104654;27;19953;-68
2021/12/21 14:53:20;;;;;;;;;;;7.80;63.90;;;;;;5086976;28;20039;-66
2021/12/21 14:55:46;;;;;;;;;;;7.90;63.90;;;;;;5089595;28;19948;-66
2021/12/21 14:59:59;;;;;;;;;;;7.70;64.00;;;;;;5119530;27;20354;-66
2021/12/21 15:05:00;;;;;;;;;;;7.50;64.90;;;;;;5121755;27;19944;-66
2021/12/21 15:07:27;;;;;;;;;;;7.50;65.30;;;;;;5111914;28;20041;-66
2021/12/21 15:09:53;;;;;;;;;;;7.40;65.10;;;;;;5108051;28;20017;-66
2021/12/21 15:12:19;;;;;;;;;;;7.40;65.20;;;;;;5097513;27;20557;-66
2021/12/21 15:14:45;;;;;;;;;;;7.30;65.30;;;;;;5101952;28;19946;-66
2021/12/21 15:17:11;;;;;;;;;;;7.30;65.50;;;;;;5104382;28;20303;-66
2021/12/21 15:19:37;;;;;;;;;;;7.30;65.50;;;;;;5106362;28;19960;-66
2021/12/21 15:22:02;;;;;;;;;;;7.20;65.30;;;;;;5106505;28;20289;-66
2021/12/21 15:24:28;;;;;;;;;;;7.20;65.70;;;;;;5104322;28;19944;-66
2021/12/21 15:26:53;;;;;;;;;;;7.20;66.10;;;;;;5105513;28;19939;-66
2021/12/21 15:29:19;;;;;;;;;;;7.30;66.20;;;;;;5106405;28;19949;-66
2021/12/21 15:31:44;;;;;;;;;;;7.40;65.40;;;;;;5103620;28;19946;-66
2021/12/21 15:34:10;;;;;;;;;;;7.40;65.10;;;;;;5101112;28;20466;-66
2021/12/21 15:36:36;;;;;;;;;;;7.50;64.60;;;;;;5114378;28;19951;-66
2021/12/21 15:39:02;;;;;;;;;;;7.50;64.10;;;;;;5108534;28;20095;-66
2021/12/21 15:41:28;;;;;;;;;;;7.60;63.30;;;;;;5112048;28;19941;-66
2021/12/21 15:43:54;;;;;;;;;;;7.50;63.40;;;;;;5118581;27;19952;-66
2021/12/21 15:46:20;;;;;;;;;;;7.40;63.70;;;;;;5110075;27;20003;-66
2021/12/21 15:48:46;;;;;;;;;;;7.30;64.00;;;;;;5110492;28;19955;-66
2021/12/21 15:51:12;;;;;;;;;;;7.20;64.50;;;;;;5106835;28;19958;-67
2021/12/21 15:53:38;;;;;;;;;;;7.10;65.00;;;;;;5101997;28;19943;-67
2021/12/21 15:56:04;;;;;;;;;;;6.90;65.60;;;;;;5103769;28;19993;-67
2021/12/21 15:58:30;;;;;;;;;;;6.90;65.90;;;;;;5102705;28;19955;-67
2021/12/21 16:00:55;;;;;;;;;;;6.90;66.20;;;;;;5110631;28;19957;-67